Walker, Minnesota
Current Conditions -  °F | °C
As of 12:55 PM on Thursday 23 Oct 2014 (Local Time) from KY49 Reporting Station
Clear Clear  
Wind Chill: 60°   Ceiling: Unl
Heat Index: 60°   Visibility: 10mi
Dew Point: 46°   Wind: 7mph
Humidity: 61%   Direction: 190°S
Pressure: 29.92"   Gusts: NA
Location:  47.1°N, 94.59°W
Report Text: KY49 231755Z AUTO 19006KT 10SM CLR 15/08 A2992 RMK AO2 T01540079 10154 20090
Loading
Personal Weather Stations






























Interactive Weather Map
Tropical Storm Tracking
New forecast layout! Learn more

10-Day Weather Forecast

Advertisements
Track Severe Weather on mobile